sensor_id;sensor_type;location;lat;lon;timestamp;pressure;altitude;pressure_sealevel;temperature;humidity
8705;BME280;4389;41.932;25.904;2023-01-27T00:00:53;99813.34;;;4.00;100.00
8705;BME280;4389;41.932;25.904;2023-01-27T00:03:21;99802.69;;;4.03;100.00
8705;BME280;4389;41.932;25.904;2023-01-27T00:05:48;99803.41;;;4.05;100.00
8705;BME280;4389;41.932;25.904;2023-01-27T00:08:15;99806.28;;;4.13;100.00
8705;BME280;4389;41.932;25.904;2023-01-27T00:10:44;99831.75;;;4.11;100.00
8705;BME280;4389;41.932;25.904;2023-01-27T00:13:12;99842.66;;;4.05;100.00
8705;BME280;4389;41.932;25.904;2023-01-27T00:15:53;99844.81;;;3.88;100.00
8705;BME280;4389;41.932;25.904;2023-01-27T00:18:20;99812.81;;;3.84;100.00
8705;BME280;4389;41.932;25.904;2023-01-27T00:20:48;99817.09;;;3.85;100.00
8705;BME280;4389;41.932;25.904;2023-01-27T00:23:32;99815.69;;;3.92;100.00
8705;BME280;4389;41.932;25.904;2023-01-27T00:26:18;99819.25;;;3.91;100.00
8705;BME280;4389;41.932;25.904;2023-01-27T00:28:46;99823.09;;;3.98;100.00
8705;BME280;4389;41.932;25.904;2023-01-27T00:31:15;99817.25;;;4.18;100.00
8705;BME280;4389;41.932;25.904;2023-01-27T00:33:59;99808.19;;;4.34;100.00
8705;BME280;4389;41.932;25.904;2023-01-27T00:36:33;99796.16;;;4.43;100.00
8705;BME280;4389;41.932;25.904;2023-01-27T00:39:00;99797.16;;;4.53;100.00
8705;BME280;4389;41.932;25.904;2023-01-27T00:41:29;99794.78;;;4.61;100.00
8705;BME280;4389;41.932;25.904;2023-01-27T00:43:55;99802.44;;;4.75;100.00
8705;BME280;4389;41.932;25.904;2023-01-27T00:46:23;99797.94;;;4.88;100.00
8705;BME280;4389;41.932;25.904;2023-01-27T00:48:51;99804.38;;;4.84;100.00
8705;BME280;4389;41.932;25.904;2023-01-27T00:51:18;99811.47;;;4.71;100.00
8705;BME280;4389;41.932;25.904;2023-01-27T00:53:45;99801.13;;;4.80;100.00
8705;BME280;4389;41.932;25.904;2023-01-27T00:56:12;99795.28;;;4.77;100.00
8705;BME280;4389;41.932;25.904;2023-01-27T00:58:40;99807.44;;;4.78;100.00
8705;BME280;4389;41.932;25.904;2023-01-27T01:01:10;99807.22;;;4.81;100.00
8705;BME280;4389;41.932;25.904;2023-01-27T01:03:37;99813.78;;;4.86;100.00
8705;BME280;4389;41.932;25.904;2023-01-27T01:06:06;99814.38;;;4.90;100.00
8705;BME280;4389;41.932;25.904;2023-01-27T01:08:34;99805.69;;;5.00;100.00
8705;BME280;4389;41.932;25.904;2023-01-27T01:11:02;99803.91;;;5.12;100.00
8705;BME280;4389;41.932;25.904;2023-01-27T01:13:32;99811.44;;;5.05;100.00
8705;BME280;4389;41.932;25.904;2023-01-27T01:16:05;99803.06;;;5.00;100.00
8705;BME280;4389;41.932;25.904;2023-01-27T01:18:32;99788.41;;;4.98;100.00
8705;BME280;4389;41.932;25.904;2023-01-27T01:20:59;99780.44;;;4.99;100.00
8705;BME280;4389;41.932;25.904;2023-01-27T01:23:26;99778.41;;;4.92;100.00
8705;BME280;4389;41.932;25.904;2023-01-27T01:25:53;99784.16;;;5.08;100.00
8705;BME280;4389;41.932;25.904;2023-01-27T01:28:21;99764.81;;;5.20;100.00
8705;BME280;4389;41.932;25.904;2023-01-27T01:30:48;99736.38;;;5.04;100.00
8705;BME280;4389;41.932;25.904;2023-01-27T01:33:16;99732.19;;;5.02;100.00
8705;BME280;4389;41.932;25.904;2023-01-27T01:35:43;99739.94;;;4.92;100.00
8705;BME280;4389;41.932;25.904;2023-01-27T01:38:10;99736.94;;;4.64;100.00
8705;BME280;4389;41.932;25.904;2023-01-27T01:40:41;99750.97;;;4.52;100.00
8705;BME280;4389;41.932;25.904;2023-01-27T01:43:13;99743.72;;;4.55;100.00
8705;BME280;4389;41.932;25.904;2023-01-27T01:45:46;99737.38;;;4.58;100.00
8705;BME280;4389;41.932;25.904;2023-01-27T01:48:18;99718.84;;;4.72;100.00
8705;BME280;4389;41.932;25.904;2023-01-27T01:50:50;99705.50;;;4.64;100.00
8705;BME280;4389;41.932;25.904;2023-01-27T01:53:19;99695.75;;;4.77;100.00
8705;BME280;4389;41.932;25.904;2023-01-27T01:55:47;99711.81;;;4.72;100.00
8705;BME280;4389;41.932;25.904;2023-01-27T01:58:15;99731.34;;;4.57;100.00
8705;BME280;4389;41.932;25.904;2023-01-27T02:00:42;99739.31;;;4.56;100.00
8705;BME280;4389;41.932;25.904;2023-01-27T02:03:09;99740.47;;;4.41;100.00
8705;BME280;4389;41.932;25.904;2023-01-27T02:05:40;99728.56;;;4.37;100.00
8705;BME280;4389;41.932;25.904;2023-01-27T02:08:12;99700.63;;;4.48;100.00
8705;BME280;4389;41.932;25.904;2023-01-27T02:10:41;99691.56;;;4.52;100.00
8705;BME280;4389;41.932;25.904;2023-01-27T02:13:08;99699.78;;;4.48;100.00
8705;BME280;4389;41.932;25.904;2023-01-27T02:15:35;99717.63;;;4.54;100.00
8705;BME280;4389;41.932;25.904;2023-01-27T02:18:02;99723.38;;;4.59;100.00
8705;BME280;4389;41.932;25.904;2023-01-27T02:20:36;99734.06;;;4.56;100.00
8705;BME280;4389;41.932;25.904;2023-01-27T02:23:16;99732.09;;;4.36;100.00
8705;BME280;4389;41.932;25.904;2023-01-27T02:25:52;99719.53;;;4.63;100.00
8705;BME280;4389;41.932;25.904;2023-01-27T02:28:20;99715.16;;;4.63;100.00
8705;BME280;4389;41.932;25.904;2023-01-27T02:30:48;99717.88;;;4.62;100.00
8705;BME280;4389;41.932;25.904;2023-01-27T02:33:15;99723.97;;;4.62;100.00
8705;BME280;4389;41.932;25.904;2023-01-27T02:35:45;99736.56;;;4.57;100.00
8705;BME280;4389;41.932;25.904;2023-01-27T02:38:16;99736.94;;;4.75;100.00
8705;BME280;4389;41.932;25.904;2023-01-27T02:40:45;99730.88;;;4.85;100.00
8705;BME280;4389;41.932;25.904;2023-01-27T02:43:15;99717.69;;;4.87;100.00
8705;BME280;4389;41.932;25.904;2023-01-27T02:45:44;99712.88;;;4.92;100.00
8705;BME280;4389;41.932;25.904;2023-01-27T02:48:11;99717.41;;;4.90;100.00
8705;BME280;4389;41.932;25.904;2023-01-27T02:50:38;99726.81;;;4.81;100.00
8705;BME280;4389;41.932;25.904;2023-01-27T02:53:05;99731.69;;;4.86;100.00
8705;BME280;4389;41.932;25.904;2023-01-27T02:55:32;99727.06;;;4.78;100.00
8705;BME280;4389;41.932;25.904;2023-01-27T02:57:59;99729.09;;;4.75;100.00
8705;BME280;4389;41.932;25.904;2023-01-27T03:00:28;99724.06;;;4.72;100.00
8705;BME280;4389;41.932;25.904;2023-01-27T03:02:54;99725.53;;;4.76;100.00
8705;BME280;4389;41.932;25.904;2023-01-27T03:05:21;99729.31;;;4.72;100.00
8705;BME280;4389;41.932;25.904;2023-01-27T03:07:48;99725.25;;;4.57;100.00
8705;BME280;4389;41.932;25.904;2023-01-27T03:10:15;99719.31;;;4.55;100.00
8705;BME280;4389;41.932;25.904;2023-01-27T03:12:43;99730.16;;;4.72;100.00
8705;BME280;4389;41.932;25.904;2023-01-27T03:15:10;99733.38;;;4.76;100.00
8705;BME280;4389;41.932;25.904;2023-01-27T03:18:02;99725.06;;;4.82;100.00
8705;BME280;4389;41.932;25.904;2023-01-27T03:20:35;99707.66;;;4.81;100.00
8705;BME280;4389;41.932;25.904;2023-01-27T03:23:02;99695.03;;;4.75;100.00
8705;BME280;4389;41.932;25.904;2023-01-27T03:25:29;99689.56;;;4.67;100.00
8705;BME280;4389;41.932;25.904;2023-01-27T03:27:56;99681.44;;;4.48;100.00
8705;BME280;4389;41.932;25.904;2023-01-27T03:30:24;99676.44;;;4.56;100.00
8705;BME280;4389;41.932;25.904;2023-01-27T03:32:51;99680.94;;;4.43;100.00
8705;BME280;4389;41.932;25.904;2023-01-27T03:35:19;99694.41;;;4.38;100.00
8705;BME280;4389;41.932;25.904;2023-01-27T03:37:47;99679.53;;;4.39;100.00
8705;BME280;4389;41.932;25.904;2023-01-27T03:40:32;99670.22;;;4.35;100.00
8705;BME280;4389;41.932;25.904;2023-01-27T03:43:16;99694.78;;;4.45;100.00
8705;BME280;4389;41.932;25.904;2023-01-27T03:46:00;99706.41;;;4.30;100.00
8705;BME280;4389;41.932;25.904;2023-01-27T03:48:46;99700.03;;;4.45;100.00
8705;BME280;4389;41.932;25.904;2023-01-27T03:51:16;99687.88;;;4.55;100.00
8705;BME280;4389;41.932;25.904;2023-01-27T03:53:44;99677.41;;;4.44;100.00
8705;BME280;4389;41.932;25.904;2023-01-27T03:56:11;99672.63;;;4.38;100.00
8705;BME280;4389;41.932;25.904;2023-01-27T03:58:39;99675.25;;;4.49;100.00
8705;BME280;4389;41.932;25.904;2023-01-27T04:01:11;99675.75;;;4.54;100.00
8705;BME280;4389;41.932;25.904;2023-01-27T04:03:39;99685.25;;;4.55;100.00
8705;BME280;4389;41.932;25.904;2023-01-27T04:06:27;99690.63;;;4.64;100.00
8705;BME280;4389;41.932;25.904;2023-01-27T04:09:12;99688.84;;;4.76;100.00
8705;BME280;4389;41.932;25.904;2023-01-27T04:11:39;99679.31;;;4.75;100.00
8705;BME280;4389;41.932;25.904;2023-01-27T04:14:24;99675.16;;;4.83;100.00
8705;BME280;4389;41.932;25.904;2023-01-27T04:16:53;99675.50;;;4.90;100.00
8705;BME280;4389;41.932;25.904;2023-01-27T04:19:20;99648.81;;;4.96;100.00
8705;BME280;4389;41.932;25.904;2023-01-27T04:21:48;99623.56;;;4.95;100.00
8705;BME280;4389;41.932;25.904;2023-01-27T04:24:16;99606.63;;;4.99;100.00
8705;BME280;4389;41.932;25.904;2023-01-27T04:26:48;99598.75;;;5.10;100.00
8705;BME280;4389;41.932;25.904;2023-01-27T04:29:16;99610.63;;;5.14;100.00
8705;BME280;4389;41.932;25.904;2023-01-27T04:31:43;99627.84;;;4.96;100.00
8705;BME280;4389;41.932;25.904;2023-01-27T04:34:10;99630.50;;;4.74;100.00
8705;BME280;4389;41.932;25.904;2023-01-27T04:36:38;99631.09;;;4.66;100.00
8705;BME280;4389;41.932;25.904;2023-01-27T04:39:07;99660.13;;;4.74;100.00
8705;BME280;4389;41.932;25.904;2023-01-27T04:41:34;99660.25;;;4.62;100.00
8705;BME280;4389;41.932;25.904;2023-01-27T04:44:01;99655.13;;;4.60;100.00
8705;BME280;4389;41.932;25.904;2023-01-27T04:46:29;99657.41;;;4.54;100.00
8705;BME280;4389;41.932;25.904;2023-01-27T04:48:56;99653.81;;;4.55;100.00
8705;BME280;4389;41.932;25.904;2023-01-27T04:51:23;99637.88;;;4.58;100.00
8705;BME280;4389;41.932;25.904;2023-01-27T04:53:49;99655.38;;;4.46;100.00
8705;BME280;4389;41.932;25.904;2023-01-27T04:56:28;99645.00;;;4.56;100.00
8705;BME280;4389;41.932;25.904;2023-01-27T04:58:57;99647.88;;;4.64;100.00
8705;BME280;4389;41.932;25.904;2023-01-27T05:01:24;99657.41;;;4.54;100.00
8705;BME280;4389;41.932;25.904;2023-01-27T05:03:51;99640.38;;;4.59;100.00
8705;BME280;4389;41.932;25.904;2023-01-27T05:06:18;99633.59;;;4.57;100.00
8705;BME280;4389;41.932;25.904;2023-01-27T05:08:45;99634.31;;;4.59;100.00
8705;BME280;4389;41.932;25.904;2023-01-27T05:11:12;99642.41;;;4.56;100.00
8705;BME280;4389;41.932;25.904;2023-01-27T05:13:40;99642.28;;;4.35;100.00
8705;BME280;4389;41.932;25.904;2023-01-27T05:16:10;99658.81;;;4.36;100.00
8705;BME280;4389;41.932;25.904;2023-01-27T05:18:38;99632.88;;;4.33;100.00
8705;BME280;4389;41.932;25.904;2023-01-27T05:21:06;99630.22;;;4.22;100.00
8705;BME280;4389;41.932;25.904;2023-01-27T05:23:33;99639.03;;;4.21;100.00
8705;BME280;4389;41.932;25.904;2023-01-27T05:26:09;99646.63;;;4.13;100.00
8705;BME280;4389;41.932;25.904;2023-01-27T05:28:38;99649.88;;;4.17;100.00
8705;BME280;4389;41.932;25.904;2023-01-27T05:31:08;99650.91;;;4.14;100.00
8705;BME280;4389;41.932;25.904;2023-01-27T05:33:35;99658.78;;;4.14;100.00
8705;BME280;4389;41.932;25.904;2023-01-27T05:36:04;99656.19;;;4.25;100.00
8705;BME280;4389;41.932;25.904;2023-01-27T05:38:31;99660.97;;;4.31;100.00
8705;BME280;4389;41.932;25.904;2023-01-27T05:40:59;99661.91;;;4.30;100.00
8705;BME280;4389;41.932;25.904;2023-01-27T05:43:28;99671.91;;;4.47;100.00
8705;BME280;4389;41.932;25.904;2023-01-27T05:46:03;99669.06;;;4.61;100.00
8705;BME280;4389;41.932;25.904;2023-01-27T05:48:32;99657.88;;;4.70;100.00
8705;BME280;4389;41.932;25.904;2023-01-27T05:50:59;99652.97;;;4.54;100.00
8705;BME280;4389;41.932;25.904;2023-01-27T05:53:26;99652.63;;;4.48;100.00
8705;BME280;4389;41.932;25.904;2023-01-27T05:55:53;99664.78;;;4.49;100.00
8705;BME280;4389;41.932;25.904;2023-01-27T05:58:21;99672.28;;;4.64;100.00
8705;BME280;4389;41.932;25.904;2023-01-27T06:00:48;99680.97;;;4.65;100.00
8705;BME280;4389;41.932;25.904;2023-01-27T06:03:15;99698.72;;;4.72;100.00
8705;BME280;4389;41.932;25.904;2023-01-27T06:05:51;99707.66;;;4.81;100.00
8705;BME280;4389;41.932;25.904;2023-01-27T06:08:18;99714.09;;;4.77;100.00
8705;BME280;4389;41.932;25.904;2023-01-27T06:10:45;99704.19;;;4.58;100.00
8705;BME280;4389;41.932;25.904;2023-01-27T06:13:12;99704.06;;;4.49;100.00
8705;BME280;4389;41.932;25.904;2023-01-27T06:15:40;99704.75;;;4.51;100.00
8705;BME280;4389;41.932;25.904;2023-01-27T06:18:07;99713.34;;;4.53;100.00
8705;BME280;4389;41.932;25.904;2023-01-27T06:20:34;99707.13;;;4.43;100.00
8705;BME280;4389;41.932;25.904;2023-01-27T06:23:02;99703.22;;;4.37;100.00
8705;BME280;4389;41.932;25.904;2023-01-27T06:25:29;99705.13;;;4.35;100.00
8705;BME280;4389;41.932;25.904;2023-01-27T06:27:56;99706.06;;;4.45;100.00
8705;BME280;4389;41.932;25.904;2023-01-27T06:30:23;99704.06;;;4.38;100.00
8705;BME280;4389;41.932;25.904;2023-01-27T06:32:50;99690.97;;;4.38;100.00
8705;BME280;4389;41.932;25.904;2023-01-27T06:35:17;99681.91;;;4.31;100.00
8705;BME280;4389;41.932;25.904;2023-01-27T06:37:44;99686.44;;;4.40;100.00
8705;BME280;4389;41.932;25.904;2023-01-27T06:40:12;99686.69;;;4.59;100.00
8705;BME280;4389;41.932;25.904;2023-01-27T06:42:41;99675.94;;;4.51;100.00
8705;BME280;4389;41.932;25.904;2023-01-27T06:45:09;99684.53;;;4.42;100.00
8705;BME280;4389;41.932;25.904;2023-01-27T06:47:37;99675.75;;;4.54;100.00
8705;BME280;4389;41.932;25.904;2023-01-27T06:50:05;99673.00;;;4.66;100.00
8705;BME280;4389;41.932;25.904;2023-01-27T06:52:32;99674.44;;;4.70;100.00
8705;BME280;4389;41.932;25.904;2023-01-27T06:54:59;99682.06;;;4.84;100.00
8705;BME280;4389;41.932;25.904;2023-01-27T06:57:27;99682.91;;;4.74;100.00
8705;BME280;4389;41.932;25.904;2023-01-27T06:59:54;99679.78;;;4.58;100.00
8705;BME280;4389;41.932;25.904;2023-01-27T07:02:21;99678.63;;;4.73;100.00
8705;BME280;4389;41.932;25.904;2023-01-27T07:04:48;99688.34;;;4.71;100.00
8705;BME280;4389;41.932;25.904;2023-01-27T07:07:15;99687.66;;;4.80;100.00
8705;BME280;4389;41.932;25.904;2023-01-27T07:09:42;99676.81;;;4.84;100.00
8705;BME280;4389;41.932;25.904;2023-01-27T07:12:08;99675.75;;;4.87;100.00
8705;BME280;4389;41.932;25.904;2023-01-27T07:14:36;99674.31;;;4.61;100.00
8705;BME280;4389;41.932;25.904;2023-01-27T07:17:03;99676.22;;;4.59;100.00
8705;BME280;4389;41.932;25.904;2023-01-27T07:19:30;99668.59;;;4.67;100.00
8705;BME280;4389;41.932;25.904;2023-01-27T07:21:57;99680.28;;;4.74;100.00
8705;BME280;4389;41.932;25.904;2023-01-27T07:24:24;99680.88;;;4.77;100.00
8705;BME280;4389;41.932;25.904;2023-01-27T07:26:51;99671.31;;;4.87;100.00
8705;BME280;4389;41.932;25.904;2023-01-27T07:29:18;99668.00;;;4.85;100.00
8705;BME280;4389;41.932;25.904;2023-01-27T07:31:46;99659.91;;;4.77;100.00
8705;BME280;4389;41.932;25.904;2023-01-27T07:34:14;99650.97;;;4.69;100.00
8705;BME280;4389;41.932;25.904;2023-01-27T07:36:41;99655.50;;;4.78;100.00
8705;BME280;4389;41.932;25.904;2023-01-27T07:39:08;99642.03;;;4.82;100.00
8705;BME280;4389;41.932;25.904;2023-01-27T07:41:35;99654.75;;;4.98;100.00
8705;BME280;4389;41.932;25.904;2023-01-27T07:44:02;99651.59;;;5.26;100.00
8705;BME280;4389;41.932;25.904;2023-01-27T07:46:29;99651.63;;;5.15;100.00
8705;BME280;4389;41.932;25.904;2023-01-27T07:48:57;99649.00;;;5.15;100.00
8705;BME280;4389;41.932;25.904;2023-01-27T07:51:24;99643.63;;;5.16;100.00
8705;BME280;4389;41.932;25.904;2023-01-27T07:53:51;99633.28;;;5.15;100.00
8705;BME280;4389;41.932;25.904;2023-01-27T07:56:18;99632.28;;;5.27;100.00
8705;BME280;4389;41.932;25.904;2023-01-27T07:58:44;99628.97;;;5.25;100.00
8705;BME280;4389;41.932;25.904;2023-01-27T08:01:12;99627.47;;;5.43;100.00
8705;BME280;4389;41.932;25.904;2023-01-27T08:03:38;99623.38;;;5.50;100.00
8705;BME280;4389;41.932;25.904;2023-01-27T08:06:08;99628.19;;;5.45;100.00
8705;BME280;4389;41.932;25.904;2023-01-27T08:08:36;99626.81;;;5.61;100.00
8705;BME280;4389;41.932;25.904;2023-01-27T08:11:04;99615.81;;;5.36;100.00
8705;BME280;4389;41.932;25.904;2023-01-27T08:13:32;99618.91;;;5.41;100.00
8705;BME280;4389;41.932;25.904;2023-01-27T08:16:00;99619.66;;;5.32;100.00
8705;BME280;4389;41.932;25.904;2023-01-27T08:18:29;99621.81;;;5.27;100.00
8705;BME280;4389;41.932;25.904;2023-01-27T08:20:58;99629.19;;;5.22;100.00
8705;BME280;4389;41.932;25.904;2023-01-27T08:23:27;99625.38;;;5.26;100.00
8705;BME280;4389;41.932;25.904;2023-01-27T08:25:56;99623.72;;;5.25;100.00
8705;BME280;4389;41.932;25.904;2023-01-27T08:28:23;99622.06;;;5.24;100.00
8705;BME280;4389;41.932;25.904;2023-01-27T08:30:51;99630.91;;;5.23;100.00
8705;BME280;4389;41.932;25.904;2023-01-27T08:33:18;99635.19;;;5.13;100.00
8705;BME280;4389;41.932;25.904;2023-01-27T08:35:46;99628.72;;;5.28;100.00
8705;BME280;4389;41.932;25.904;2023-01-27T08:38:15;99631.22;;;5.29;100.00
8705;BME280;4389;41.932;25.904;2023-01-27T08:40:44;99628.41;;;5.53;100.00
8705;BME280;4389;41.932;25.904;2023-01-27T08:43:12;99637.13;;;5.74;100.00
8705;BME280;4389;41.932;25.904;2023-01-27T08:45:45;99633.28;;;5.46;100.00
8705;BME280;4389;41.932;25.904;2023-01-27T08:48:12;99639.59;;;5.55;100.00
8705;BME280;4389;41.932;25.904;2023-01-27T08:50:39;99638.13;;;5.62;100.00
8705;BME280;4389;41.932;25.904;2023-01-27T08:53:05;99635.22;;;5.44;100.00
8705;BME280;4389;41.932;25.904;2023-01-27T08:55:32;99638.47;;;5.37;100.00
8705;BME280;4389;41.932;25.904;2023-01-27T08:58:01;99634.41;;;5.44;100.00
8705;BME280;4389;41.932;25.904;2023-01-27T09:00:28;99632.28;;;5.38;100.00
8705;BME280;4389;41.932;25.904;2023-01-27T09:02:54;99629.38;;;5.41;100.00
8705;BME280;4389;41.932;25.904;2023-01-27T09:05:21;99632.88;;;5.30;100.00
8705;BME280;4389;41.932;25.904;2023-01-27T09:07:48;99623.91;;;5.44;100.00
8705;BME280;4389;41.932;25.904;2023-01-27T09:10:15;99625.78;;;5.53;100.00
8705;BME280;4389;41.932;25.904;2023-01-27T09:12:43;99632.38;;;5.68;100.00
8705;BME280;4389;41.932;25.904;2023-01-27T09:15:12;99631.50;;;5.58;100.00
8705;BME280;4389;41.932;25.904;2023-01-27T09:17:40;99631.19;;;5.72;100.00
8705;BME280;4389;41.932;25.904;2023-01-27T09:20:08;99636.13;;;5.86;100.00
8705;BME280;4389;41.932;25.904;2023-01-27T09:22:37;99632.22;;;5.80;100.00
8705;BME280;4389;41.932;25.904;2023-01-27T09:25:05;99634.47;;;5.85;100.00
8705;BME280;4389;41.932;25.904;2023-01-27T09:27:33;99633.66;;;5.84;100.00
8705;BME280;4389;41.932;25.904;2023-01-27T09:29:59;99624.72;;;5.76;100.00
8705;BME280;4389;41.932;25.904;2023-01-27T09:32:28;99626.59;;;5.85;100.00
8705;BME280;4389;41.932;25.904;2023-01-27T09:34:54;99611.03;;;5.93;100.00
8705;BME280;4389;41.932;25.904;2023-01-27T09:37:21;99613.94;;;5.79;100.00
8705;BME280;4389;41.932;25.904;2023-01-27T09:39:52;99607.22;;;5.65;100.00
8705;BME280;4389;41.932;25.904;2023-01-27T09:42:49;99594.22;;;5.64;100.00
8705;BME280;4389;41.932;25.904;2023-01-27T09:45:27;99594.44;;;5.72;100.00
8705;BME280;4389;41.932;25.904;2023-01-27T09:48:13;99588.94;;;5.75;100.00
8705;BME280;4389;41.932;25.904;2023-01-27T09:50:43;99594.47;;;5.92;100.00
8705;BME280;4389;41.932;25.904;2023-01-27T09:56:39;99590.63;;;6.17;100.00
8705;BME280;4389;41.932;25.904;2023-01-27T09:59:20;99588.28;;;6.23;100.00
8705;BME280;4389;41.932;25.904;2023-01-27T10:01:58;99588.56;;;6.20;100.00
8705;BME280;4389;41.932;25.904;2023-01-27T10:04:47;99582.47;;;6.20;100.00
8705;BME280;4389;41.932;25.904;2023-01-27T10:07:39;99586.00;;;6.09;100.00
8705;BME280;4389;41.932;25.904;2023-01-27T10:10:21;99580.69;;;6.00;100.00
8705;BME280;4389;41.932;25.904;2023-01-27T10:13:13;99581.00;;;5.86;100.00
8705;BME280;4389;41.932;25.904;2023-01-27T10:15:52;99579.53;;;5.93;100.00
8705;BME280;4389;41.932;25.904;2023-01-27T10:18:33;99577.88;;;5.92;100.00
8705;BME280;4389;41.932;25.904;2023-01-27T10:21:13;99572.97;;;5.98;100.00
8705;BME280;4389;41.932;25.904;2023-01-27T10:23:52;99569.25;;;6.01;100.00
8705;BME280;4389;41.932;25.904;2023-01-27T10:26:28;99549.16;;;5.90;100.00
8705;BME280;4389;41.932;25.904;2023-01-27T10:29:01;99538.50;;;6.12;100.00
8705;BME280;4389;41.932;25.904;2023-01-27T10:31:34;99526.34;;;6.21;100.00
8705;BME280;4389;41.932;25.904;2023-01-27T10:34:07;99518.72;;;6.48;100.00
8705;BME280;4389;41.932;25.904;2023-01-27T10:36:44;99520.97;;;6.62;100.00
8705;BME280;4389;41.932;25.904;2023-01-27T10:39:17;99520.84;;;6.63;100.00
8705;BME280;4389;41.932;25.904;2023-01-27T10:41:53;99510.66;;;6.40;100.00
8705;BME280;4389;41.932;25.904;2023-01-27T10:44:37;99509.31;;;6.55;100.00
8705;BME280;4389;41.932;25.904;2023-01-27T10:47:14;99503.81;;;6.67;100.00
8705;BME280;4389;41.932;25.904;2023-01-27T10:49:48;99501.38;;;6.75;100.00
8705;BME280;4389;41.932;25.904;2023-01-27T10:52:21;99499.13;;;6.71;100.00
8705;BME280;4389;41.932;25.904;2023-01-27T10:54:52;99497.06;;;6.74;100.00
8705;BME280;4389;41.932;25.904;2023-01-27T10:57:27;99502.13;;;6.47;100.00
8705;BME280;4389;41.932;25.904;2023-01-27T11:00:01;99505.69;;;6.46;100.00
8705;BME280;4389;41.932;25.904;2023-01-27T11:02:34;99496.53;;;6.31;100.00
8705;BME280;4389;41.932;25.904;2023-01-27T11:05:06;99490.47;;;6.31;100.00
8705;BME280;4389;41.932;25.904;2023-01-27T11:07:40;99480.41;;;6.36;100.00
8705;BME280;4389;41.932;25.904;2023-01-27T11:10:15;99484.41;;;6.40;100.00
8705;BME280;4389;41.932;25.904;2023-01-27T11:12:47;99483.19;;;6.44;100.00
8705;BME280;4389;41.932;25.904;2023-01-27T11:15:16;99484.97;;;6.43;100.00
8705;BME280;4389;41.932;25.904;2023-01-27T11:17:48;99482.75;;;6.39;100.00
8705;BME280;4389;41.932;25.904;2023-01-27T11:20:25;99473.06;;;6.49;100.00
8705;BME280;4389;41.932;25.904;2023-01-27T11:22:57;99474.19;;;6.37;100.00
8705;BME280;4389;41.932;25.904;2023-01-27T11:25:35;99467.56;;;6.52;100.00
8705;BME280;4389;41.932;25.904;2023-01-27T11:28:19;99465.34;;;6.57;100.00
8705;BME280;4389;41.932;25.904;2023-01-27T11:30:54;99469.34;;;6.51;100.00
8705;BME280;4389;41.932;25.904;2023-01-27T11:33:29;99465.38;;;6.76;100.00
8705;BME280;4389;41.932;25.904;2023-01-27T11:36:01;99476.47;;;6.98;100.00
8705;BME280;4389;41.932;25.904;2023-01-27T11:38:30;99468.97;;;6.75;100.00
8705;BME280;4389;41.932;25.904;2023-01-27T11:40:57;99463.88;;;6.83;100.00
8705;BME280;4389;41.932;25.904;2023-01-27T11:43:25;99467.19;;;6.94;100.00
8705;BME280;4389;41.932;25.904;2023-01-27T11:45:59;99469.00;;;6.84;100.00
8705;BME280;4389;41.932;25.904;2023-01-27T11:48:34;99458.31;;;6.67;100.00
8705;BME280;4389;41.932;25.904;2023-01-27T11:51:03;99463.88;;;6.83;100.00
8705;BME280;4389;41.932;25.904;2023-01-27T11:53:34;99461.13;;;6.94;100.00
8705;BME280;4389;41.932;25.904;2023-01-27T11:56:07;99463.59;;;7.05;100.00
8705;BME280;4389;41.932;25.904;2023-01-27T11:58:42;99463.31;;;6.98;100.00
8705;BME280;4389;41.932;25.904;2023-01-27T12:01:14;99469.25;;;6.81;100.00
8705;BME280;4389;41.932;25.904;2023-01-27T12:03:48;99459.44;;;6.83;100.00
8705;BME280;4389;41.932;25.904;2023-01-27T12:06:25;99460.13;;;7.14;100.00
8705;BME280;4389;41.932;25.904;2023-01-27T12:08:57;99455.16;;;7.11;100.00
8705;BME280;4389;41.932;25.904;2023-01-27T12:11:25;99456.38;;;7.07;100.00
8705;BME280;4389;41.932;25.904;2023-01-27T12:13:55;99450.19;;;7.08;100.00
8705;BME280;4389;41.932;25.904;2023-01-27T12:16:25;99451.53;;;7.12;100.00
8705;BME280;4389;41.932;25.904;2023-01-27T12:18:58;99457.78;;;7.01;100.00
8705;BME280;4389;41.932;25.904;2023-01-27T12:21:37;99449.06;;;7.01;100.00
8705;BME280;4389;41.932;25.904;2023-01-27T12:24:20;99452.69;;;7.00;100.00
8705;BME280;4389;41.932;25.904;2023-01-27T12:26:50;99444.91;;;7.08;100.00
8705;BME280;4389;41.932;25.904;2023-01-27T12:29:19;99451.53;;;7.12;100.00
8705;BME280;4389;41.932;25.904;2023-01-27T12:31:49;99459.13;;;7.24;100.00
8705;BME280;4389;41.932;25.904;2023-01-27T12:34:30;99448.47;;;7.45;100.00
8705;BME280;4389;41.932;25.904;2023-01-27T12:36:59;99460.63;;;7.65;100.00
8705;BME280;4389;41.932;25.904;2023-01-27T12:39:44;99450.47;;;7.70;100.00
8705;BME280;4389;41.932;25.904;2023-01-27T12:42:35;99452.81;;;7.73;99.91
8705;BME280;4389;41.932;25.904;2023-01-27T12:45:24;99462.50;;;7.82;99.63
8705;BME280;4389;41.932;25.904;2023-01-27T12:47:58;99463.59;;;7.79;99.74
8705;BME280;4389;41.932;25.904;2023-01-27T12:50:28;99471.09;;;7.74;99.72
8705;BME280;4389;41.932;25.904;2023-01-27T12:53:10;99468.66;;;7.54;99.90
8705;BME280;4389;41.932;25.904;2023-01-27T12:55:41;99469.19;;;7.67;100.00
8705;BME280;4389;41.932;25.904;2023-01-27T12:58:30;99477.66;;;7.61;99.74
8705;BME280;4389;41.932;25.904;2023-01-27T13:01:00;99472.28;;;7.43;100.00
8705;BME280;4389;41.932;25.904;2023-01-27T13:03:28;99467.56;;;7.56;100.00
8705;BME280;4389;41.932;25.904;2023-01-27T13:05:57;99474.56;;;7.75;99.51
8705;BME280;4389;41.932;25.904;2023-01-27T13:08:26;99461.41;;;7.75;99.53
8705;BME280;4389;41.932;25.904;2023-01-27T13:10:57;99457.63;;;7.87;100.00
8705;BME280;4389;41.932;25.904;2023-01-27T13:13:26;99463.28;;;7.92;99.34
8705;BME280;4389;41.932;25.904;2023-01-27T13:15:55;99457.78;;;7.76;99.13
8705;BME280;4389;41.932;25.904;2023-01-27T13:18:24;99464.03;;;7.75;100.00
8705;BME280;4389;41.932;25.904;2023-01-27T13:20:55;99461.09;;;7.78;100.00
8705;BME280;4389;41.932;25.904;2023-01-27T13:23:27;99460.88;;;7.62;100.00
8705;BME280;4389;41.932;25.904;2023-01-27T13:26:10;99460.34;;;7.58;100.00
8705;BME280;4389;41.932;25.904;2023-01-27T13:28:43;99461.19;;;7.59;100.00
8705;BME280;4389;41.932;25.904;2023-01-27T13:31:14;99471.63;;;7.78;100.00
8705;BME280;4389;41.932;25.904;2023-01-27T13:33:46;99464.44;;;7.80;100.00